Buckingham, Iowa
Current Conditions -  °F | °C
As of 10:54 AM on Thursday 18 Dec 2014 (Local Time) from KALO Reporting Station
Scattered Clouds Scattered Clouds  
Wind Chill: 13°   Ceiling: Unl
Heat Index: 20°   Visibility: 9mi
Dew Point: 16°   Wind: 5mph
Humidity: 85%   Direction: NA
Pressure: 30.29"   Gusts: NA
Location:  42.26°N, 92.45°W
Report Text: KALO 181654Z AUTO VRB04KT 9SM SCT120 M07/M09 A3029 RMK AO2 SLP275 T10671089
Loading
Personal Weather Stations






























Interactive Weather Map New forecast layout! Learn more

10-Day Weather Forecast

Advertisements
Track Severe Weather on mobile